Impacts METAR Board
IDs:

KJFK - New York/Kennedy Int, NY, US

Updated at: 0100 UTC 28 May 2018
Potential Impact None Slight Moderate High
Time 27/13Z 27/14Z 27/15Z 27/16Z 27/17Z 27/18Z 27/19Z 27/20Z 27/21Z 27/22Z 27/23Z 28/00Z 28/01Z
Temp63 63 60 62 62 61 60 61 60 59 59 58 56
Dewpt63 62 60 61 61 60 59 58 57 56 55 54 54
Altim30.00 30.00 30.03 30.02 30.03 30.04 30.03 30.04 30.04 30.04 30.06 30.07 30.08
VIS4 4 6 9 10 10 10 10 10 10 10 10 10
CIG11 11 7 6 9 8 9 10 12 12 14 13 12
CoverOVCOVCOVCOVCOVCOVCOVCOVCOVCOVCOVCOVCOVC
FltCatMVFRMVFRIFRIFRIFRIFRIFRMVFRMVFRMVFRMVFRMVFRMVFR
WXRA BR+RA BR-RA BR-RA-RA----------------
WDir408011060604050505040404040
WSpd10 12 10 11 15 15 18 18 18 19 15 15 14
WGst-- -- -- -- 21 -- 26 -- 25 -- -- -- 24
Raw hourly METARs
KJFK 271251Z 04010KT 4SM RA BR BKN011 BKN055 OVC095 17/17 A3000 RMK AO2 SLP157 P0027 T01720172
KJFK 271351Z 08012KT 4SM +RA BR BKN011 BKN037 OVC075 17/17 A3000 RMK AO2 VIS 2 1/2 W SLP159 P0020 T01720167
KJFK 271451Z 11010KT 6SM -RA BR BKN007 OVC020 16/16 A3003 RMK AO2 SLP168 P0018 60065 T01560156 53018
KJFK 271551Z 06011KT 9SM -RA OVC006 17/16 A3002 RMK AO2 SLP166 P0004 T01670161
KJFK 271651Z 06015G21KT 10SM -RA OVC009 17/16 A3003 RMK AO2 SLP168 P0001 T01670161
KJFK 271751Z 04015KT 10SM BKN008 BKN012 OVC020 16/16 A3004 RMK AO2 RAE39 SLP171 P0000 60070 T01610156 10178 20156 53003
KJFK 271851Z 05018G26KT 10SM BKN009 OVC012 16/15 A3003 RMK AO2 PK WND 05026/1802 SLP168 T01560150
KJFK 271951Z 05018KT 10SM BKN010 OVC014 16/14 A3004 RMK AO2 PK WND 06028/1924 SLP170 T01610144
KJFK 272051Z 05018G25KT 10SM BKN012 BKN016 OVC030 16/14 A3004 RMK AO2 PK WND 05027/2035 SLP170 T01560139 56000
KJFK 272151Z 04019KT 10SM BKN012 OVC016 15/13 A3004 RMK AO2 SLP173 T01500133
KJFK 272251Z 04015KT 10SM OVC014 15/13 A3006 RMK AO2 PK WND 05027/2239 SLP177 T01500128
KJFK 272351Z 04015KT 10SM OVC013 14/12 A3007 RMK AO2 SLP182 T01440122 10161 20144 53011
KJFK 280051Z 04014G24KT 10SM OVC012 13/12 A3008 RMK AO2 SLP185 T01330122



Page loaded:  01:33 UTC  |   06:33 PM Pacific  |   07:33 PM Mountain  |   08:33 PM Central  |   09:33 PM Eastern

 

ADVISORIES

FORECASTS

FORECASTS

OBSERVATIONS

USER TOOLS

ABOUT US